Time;durP1;ratioP1;P1;durP2;ratioP2;P2;SDS_P1;SDS_P2;PMS_P1;PMS_P2;Temp;Humidity;BMP_temperature;BMP_pressure;BME280_temperature;BME280_humidity;BME280_pressure;Samples;Min_cycle;Max_cycle;Signal;HPM_P1;HPM_P2
2022/08/15 00:00:25;;;;;;;23.88;19.08;;;;;;;;;;4959906;28;20037;-74
2022/08/15 00:02:57;;;;;;;21.65;18.92;;;;;;;;;;4974592;28;20489;-75
2022/08/15 00:05:38;;;;;;;22.27;19.20;;;;;;;;;;4974576;28;20138;-74
2022/08/15 00:08:08;;;;;;;23.45;19.52;;;;;;;;;;4957904;28;20042;-74
2022/08/15 00:10:58;;;;;;;24.27;19.73;;;;;;;;;;4974374;28;20126;-76
2022/08/15 00:13:56;;;;;;;23.10;20.13;;;;;;;;;;4974312;28;20043;-75
2022/08/15 00:16:32;;;;;;;24.67;20.75;;;;;;;;;;4974525;28;20457;-74
2022/08/15 00:19:11;;;;;;;25.45;20.45;;;;;;;;;;4974208;28;20057;-75
2022/08/15 00:21:46;;;;;;;25.73;21.30;;;;;;;;;;4957882;28;20054;-75
2022/08/15 00:24:17;;;;;;;26.23;22.85;;;;;;;;;;4974252;28;20049;-74
2022/08/15 00:26:59;;;;;;;24.42;21.10;;;;;;;;;;4974109;28;20051;-74
2022/08/15 00:29:36;;;;;;;26.55;22.60;;;;;;;;;;4974029;28;20066;-74
2022/08/15 00:32:08;;;;;;;28.17;23.23;;;;;;;;;;4956634;28;20051;-75
2022/08/15 00:35:35;;;;;;;27.63;22.75;;;;;;;;;;4973705;28;20074;-75
2022/08/15 00:37:55;;;;;;;30.52;24.10;;;;;;;;;;4973879;28;20379;-74
2022/08/15 00:43:45;;;;;;;26.77;23.00;;;;;;;;;;4973843;28;20189;-75
2022/08/15 00:46:18;;;;;;;31.48;25.25;;;;;;;;;;4973645;28;20051;-75
2022/08/15 00:48:50;;;;;;;26.38;23.05;;;;;;;;;;4956490;28;20085;-74
2022/08/15 00:51:21;;;;;;;29.70;23.95;;;;;;;;;;4956304;28;20053;-74
2022/08/15 00:53:59;;;;;;;27.35;23.63;;;;;;;;;;4941692;28;20043;-74
2022/08/15 00:56:29;;;;;;;27.13;23.10;;;;;;;;;;4973774;28;20046;-74
2022/08/15 00:59:01;;;;;;;29.65;22.85;;;;;;;;;;4956513;28;20134;-75
2022/08/15 01:01:35;;;;;;;26.40;22.55;;;;;;;;;;4955440;28;20057;-74
2022/08/15 01:04:19;;;;;;;28.48;22.77;;;;;;;;;;4973519;28;20062;-76
2022/08/15 01:07:02;;;;;;;26.65;21.75;;;;;;;;;;4973385;28;20039;-74
2022/08/15 01:09:31;;;;;;;27.85;23.13;;;;;;;;;;4956770;28;20396;-76
2022/08/15 01:12:13;;;;;;;28.63;22.58;;;;;;;;;;4973639;28;20062;-73
2022/08/15 01:14:52;;;;;;;24.40;21.67;;;;;;;;;;4957677;28;20035;-73
2022/08/15 01:17:27;;;;;;;26.67;22.77;;;;;;;;;;4956188;28;20054;-73
2022/08/15 01:20:29;;;;;;;26.67;22.67;;;;;;;;;;4956113;28;20466;-73
2022/08/15 01:23:20;;;;;;;32.08;23.58;;;;;;;;;;4905864;28;20399;-74
2022/08/15 01:25:49;;;;;;;26.83;22.75;;;;;;;;;;4940241;28;20050;-74
2022/08/15 01:28:41;;;;;;;27.33;22.10;;;;;;;;;;4956074;28;20382;-74
2022/08/15 01:31:15;;;;;;;26.98;23.13;;;;;;;;;;4955987;28;20061;-73
2022/08/15 01:33:46;;;;;;;25.83;22.05;;;;;;;;;;4955553;28;20130;-73
2022/08/15 01:36:16;;;;;;;27.33;22.08;;;;;;;;;;4955964;28;20047;-73
2022/08/15 01:39:00;;;;;;;27.02;20.83;;;;;;;;;;4956057;28;20126;-73
2022/08/15 01:41:39;;;;;;;26.52;21.45;;;;;;;;;;4956098;28;20046;-73
2022/08/15 01:44:23;;;;;;;26.58;22.02;;;;;;;;;;4955978;28;20050;-73
2022/08/15 01:47:08;;;;;;;29.00;23.67;;;;;;;;;;4955767;28;20055;-73
2022/08/15 01:49:43;;;;;;;33.13;23.13;;;;;;;;;;4956182;28;20050;-73
2022/08/15 01:52:12;;;;;;;26.38;23.13;;;;;;;;;;4955789;28;20042;-73
2022/08/15 01:55:02;;;;;;;27.23;21.88;;;;;;;;;;4942643;28;20043;-73
2022/08/15 01:57:34;;;;;;;;;;;;;;;;;;4956338;28;20133;-73
2022/08/15 02:00:01;;;;;;;33.08;24.48;;;;;;;;;;4955854;28;19922;-73
2022/08/15 02:02:44;;;;;;;31.80;23.33;;;;;;;;;;4955801;28;20078;-73
2022/08/15 02:05:14;;;;;;;28.80;22.73;;;;;;;;;;4955649;28;20043;-73
2022/08/15 02:07:42;;;;;;;27.35;23.13;;;;;;;;;;4973396;28;20141;-73
2022/08/15 02:10:31;;;;;;;29.23;23.40;;;;;;;;;;4955822;28;20039;-73
2022/08/15 02:13:00;;;;;;;28.48;22.55;;;;;;;;;;4958647;28;20070;-73
2022/08/15 02:15:42;;;;;;;28.00;22.30;;;;;;;;;;4959488;28;20086;-72
2022/08/15 02:18:11;;;;;;;29.27;23.42;;;;;;;;;;4976568;28;20121;-72
2022/08/15 02:20:47;;;;;;;29.05;23.50;;;;;;;;;;4959169;28;20069;-72
2022/08/15 02:23:18;;;;;;;29.65;23.40;;;;;;;;;;4958513;28;20046;-72
2022/08/15 02:25:48;;;;;;;32.58;25.17;;;;;;;;;;4959036;28;20047;-72
2022/08/15 02:28:18;;;;;;;30.58;25.35;;;;;;;;;;4959050;28;20047;-72
2022/08/15 02:31:07;;;;;;;35.25;25.65;;;;;;;;;;4959111;28;20051;-73
2022/08/15 02:33:38;;;;;;;33.03;26.50;;;;;;;;;;4958754;28;20047;-72
2022/08/15 02:36:13;;;;;;;;;;;;;;;;;;4959282;28;20081;-72
2022/08/15 02:39:01;;;;;;;43.50;34.40;;;;;;;;;;4958638;28;19965;-72
2022/08/15 02:41:32;;;;;;;40.92;31.80;;;;;;;;;;4943138;28;20122;-73
2022/08/15 02:44:11;;;;;;;28.42;24.77;;;;;;;;;;4958847;28;20078;-72
2022/08/15 02:46:50;;;;;;;28.52;23.90;;;;;;;;;;4958556;28;20154;-72
2022/08/15 02:49:31;;;;;;;31.25;24.45;;;;;;;;;;4958542;28;20135;-71
2022/08/15 02:52:08;;;;;;;46.47;35.15;;;;;;;;;;4958288;28;20402;-72
2022/08/15 02:54:50;;;;;;;43.15;30.95;;;;;;;;;;4958390;28;20113;-72
2022/08/15 02:57:34;;;;;;;31.92;24.60;;;;;;;;;;4958256;28;20117;-72
2022/08/15 03:00:23;;;;;;;42.42;30.63;;;;;;;;;;4958323;28;20046;-72
2022/08/15 03:03:05;;;;;;;38.75;29.13;;;;;;;;;;4958256;28;20051;-72
2022/08/15 03:05:35;;;;;;;37.35;28.40;;;;;;;;;;4958321;28;20047;-72
2022/08/15 03:08:04;;;;;;;50.58;35.25;;;;;;;;;;4958307;28;20142;-72
2022/08/15 03:10:34;;;;;;;58.08;38.85;;;;;;;;;;4958147;28;20088;-72
2022/08/15 03:13:13;;;;;;;43.00;30.95;;;;;;;;;;4957755;28;20126;-72
2022/08/15 03:15:56;;;;;;;41.97;30.35;;;;;;;;;;4974101;28;20427;-72
2022/08/15 03:18:32;;;;;;;27.60;22.75;;;;;;;;;;4958271;28;20460;-72
2022/08/15 03:21:05;;;;;;;39.55;28.15;;;;;;;;;;4958160;28;20074;-72
2022/08/15 03:23:33;;;;;;;39.90;28.88;;;;;;;;;;4957335;28;20205;-72
2022/08/15 03:26:11;;;;;;;41.88;32.92;;;;;;;;;;4974202;28;20047;-72
2022/08/15 03:29:01;;;;;;;36.40;29.98;;;;;;;;;;4974050;28;20046;-72
2022/08/15 03:31:34;;;;;;;47.80;41.00;;;;;;;;;;4957513;28;20050;-72
2022/08/15 03:34:14;;;;;;;34.42;29.20;;;;;;;;;;4957690;28;20053;-72
2022/08/15 03:36:46;;;;;;;65.53;55.45;;;;;;;;;;4957834;28;20394;-72
2022/08/15 03:39:21;;;;;;;70.47;60.15;;;;;;;;;;4957575;28;20051;-72
2022/08/15 03:41:52;;;;;;;81.82;72.85;;;;;;;;;;4974543;28;20089;-72
2022/08/15 03:44:25;;;;;;;29.50;24.88;;;;;;;;;;4955735;28;20078;-73
2022/08/15 03:46:59;;;;;;;53.08;45.40;;;;;;;;;;4952429;28;20421;-73
2022/08/15 03:49:30;;;;;;;44.22;32.58;;;;;;;;;;4952585;28;20048;-73
2022/08/15 03:52:19;;;;;;;43.67;33.90;;;;;;;;;;4968131;28;20070;-72
2022/08/15 03:55:03;;;;;;;33.38;26.23;;;;;;;;;;4952280;28;20043;-73
2022/08/15 03:57:31;;;;;;;38.83;32.95;;;;;;;;;;4953037;28;20058;-72
2022/08/15 04:00:20;;;;;;;39.78;31.67;;;;;;;;;;4954055;29;20071;-72
2022/08/15 04:02:53;;;;;;;;;;;;;;;;;;4954499;28;20043;-72
2022/08/15 04:05:21;;;;;;;35.00;30.10;;;;;;;;;;4954252;28;20009;-72
2022/08/15 04:07:50;;;;;;;30.85;25.70;;;;;;;;;;4955570;28;20071;-72
2022/08/15 04:10:25;;;;;;;;;;;;;;;;;;4954336;28;20409;-72
2022/08/15 04:13:07;;;;;;;29.15;22.90;;;;;;;;;;4953735;29;19923;-72
2022/08/15 04:15:36;;;;;;;29.90;26.35;;;;;;;;;;4953976;28;20138;-72
2022/08/15 04:18:05;;;;;;;32.83;27.98;;;;;;;;;;4953808;28;20106;-72
2022/08/15 04:20:58;;;;;;;35.17;30.58;;;;;;;;;;4953927;28;20040;-72
2022/08/15 04:23:29;;;;;;;30.95;27.48;;;;;;;;;;4954067;28;20399;-72
2022/08/15 04:26:00;;;;;;;35.75;31.65;;;;;;;;;;4953925;29;20035;-72
2022/08/15 04:28:35;;;;;;;41.88;32.05;;;;;;;;;;4969768;28;20039;-72
2022/08/15 04:31:25;;;;;;;32.42;27.83;;;;;;;;;;4953594;28;20087;-72
2022/08/15 04:34:03;;;;;;;59.08;49.40;;;;;;;;;;4953693;28;20043;-72
2022/08/15 04:36:50;;;;;;;63.92;55.10;;;;;;;;;;4953222;29;20074;-72
2022/08/15 04:39:20;;;;;;;61.40;52.78;;;;;;;;;;4953029;28;20043;-72
2022/08/15 04:42:01;;;;;;;57.78;50.20;;;;;;;;;;4969323;28;20505;-72
2022/08/15 04:44:31;;;;;;;44.72;39.28;;;;;;;;;;4969291;28;20051;-72
2022/08/15 04:46:59;;;;;;;30.27;25.50;;;;;;;;;;4969305;28;20146;-72
2022/08/15 04:49:29;;;;;;;30.45;27.20;;;;;;;;;;4969424;28;20062;-72
2022/08/15 04:52:05;;;;;;;33.80;30.10;;;;;;;;;;4969317;28;20051;-72
2022/08/15 04:54:34;;;;;;;37.70;33.63;;;;;;;;;;4969274;28;20436;-72
2022/08/15 04:57:20;;;;;;;34.05;29.52;;;;;;;;;;4953227;28;20047;-72
2022/08/15 04:59:51;;;;;;;37.08;32.53;;;;;;;;;;4969431;28;20035;-72
2022/08/15 05:03:01;;;;;;;31.10;26.58;;;;;;;;;;4954470;28;20133;-72
2022/08/15 05:05:32;;;;;;;24.60;21.67;;;;;;;;;;4969268;28;20043;-72
2022/08/15 05:08:05;;;;;;;24.40;21.70;;;;;;;;;;4969452;28;20074;-72
2022/08/15 05:10:45;;;;;;;24.95;20.05;;;;;;;;;;4969150;28;20043;-72
2022/08/15 05:13:15;;;;;;;23.08;18.88;;;;;;;;;;4968769;28;20109;-72
2022/08/15 05:15:44;;;;;;;23.98;20.95;;;;;;;;;;4969134;28;20079;-72
2022/08/15 05:18:25;;;;;;;26.63;22.88;;;;;;;;;;4969128;28;20668;-72
2022/08/15 05:20:54;;;;;;;25.15;21.90;;;;;;;;;;4954214;28;20047;-72
2022/08/15 05:23:22;;;;;;;24.45;21.05;;;;;;;;;;4968985;28;20039;-72
2022/08/15 05:26:14;;;;;;;22.35;19.20;;;;;;;;;;4968973;28;20524;-72
2022/08/15 05:29:02;;;;;;;21.85;18.92;;;;;;;;;;4968981;28;20051;-72
2022/08/15 05:31:32;;;;;;;22.50;18.98;;;;;;;;;;4968957;28;20094;-72
2022/08/15 05:34:05;;;;;;;25.58;21.75;;;;;;;;;;4954048;28;20039;-72
2022/08/15 05:36:49;;;;;;;45.78;38.05;;;;;;;;;;4968870;28;20043;-72
2022/08/15 05:39:20;;;;;;;36.80;31.23;;;;;;;;;;4968757;28;20051;-72
2022/08/15 05:42:11;;;;;;;24.20;21.58;;;;;;;;;;4968928;28;20368;-72
2022/08/15 05:44:56;;;;;;;26.13;22.15;;;;;;;;;;4968663;28;20051;-72
2022/08/15 05:47:35;;;;;;;19.15;16.80;;;;;;;;;;4971105;28;20051;-72
2022/08/15 05:50:30;;;;;;;46.60;39.78;;;;;;;;;;4972622;28;20572;-72
2022/08/15 05:53:24;;;;;;;27.83;24.45;;;;;;;;;;4971752;28;20055;-73
2022/08/15 05:56:01;;;;;;;72.05;61.05;;;;;;;;;;4972462;28;20047;-73
2022/08/15 05:58:40;;;;;;;23.55;19.75;;;;;;;;;;4972477;28;20102;-72
2022/08/15 06:16:45;;;;;;;21.70;19.38;;;;;;;;;;6317926;22;20408;-74
2022/08/15 06:19:25;;;;;;;18.25;16.40;;;;;;;;;;6314061;22;20019;-73
2022/08/15 06:22:12;;;;;;;28.63;24.92;;;;;;;;;;6287117;22;20019;-74
2022/08/15 06:24:56;;;;;;;29.85;26.13;;;;;;;;;;6288690;22;20382;-74
2022/08/15 06:27:35;;;;;;;20.15;17.75;;;;;;;;;;6315585;22;20378;-74
2022/08/15 06:30:22;;;;;;;20.55;17.05;;;;;;;;;;6288046;22;20025;-74
2022/08/15 06:32:58;;;;;;;19.60;15.05;;;;;;;;;;6288175;22;20019;-74
2022/08/15 06:35:34;;;;;;;20.75;18.20;;;;;;;;;;6287648;22;20057;-74
2022/08/15 06:38:12;;;;;;;19.10;17.13;;;;;;;;;;6288059;22;20460;-74
2022/08/15 06:41:04;;;;;;;19.90;17.83;;;;;;;;;;6286866;22;20050;-74
2022/08/15 06:43:34;;;;;;;15.32;13.68;;;;;;;;;;6287527;22;20459;-73
2022/08/15 06:46:27;;;;;;;28.13;23.13;;;;;;;;;;6287784;22;20019;-74
2022/08/15 06:49:19;;;;;;;19.50;17.30;;;;;;;;;;6287158;22;20022;-75
2022/08/15 06:51:52;;;;;;;18.42;15.45;;;;;;;;;;6287737;22;20106;-74
2022/08/15 06:54:24;;;;;;;34.15;28.60;;;;;;;;;;6287796;22;20015;-73
2022/08/15 06:57:22;;;;;;;29.75;25.73;;;;;;;;;;6287600;22;20019;-74
2022/08/15 06:59:55;;;;;;;11.75;9.65;;;;;;;;;;6287730;22;20077;-73
2022/08/15 07:02:40;;;;;;;11.93;10.07;;;;;;;;;;6286714;22;20019;-73
2022/08/15 07:05:17;;;;;;;16.50;12.77;;;;;;;;;;6287064;22;20019;-73
2022/08/15 07:07:57;;;;;;;24.45;19.88;;;;;;;;;;6286800;22;20019;-73
2022/08/15 07:10:48;;;;;;;18.80;16.88;;;;;;;;;;6287496;22;20030;-73
2022/08/15 07:13:32;;;;;;;25.67;22.80;;;;;;;;;;6286800;22;20098;-73
2022/08/15 07:16:19;;;;;;;28.73;25.10;;;;;;;;;;6283997;22;20399;-73
2022/08/15 07:18:50;;;;;;;15.13;13.52;;;;;;;;;;6280368;22;20387;-73
2022/08/15 07:21:37;;;;;;;36.58;32.30;;;;;;;;;;6280199;22;20019;-73
2022/08/15 07:24:28;;;;;;;22.23;18.27;;;;;;;;;;6279570;22;20019;-73
2022/08/15 07:27:14;;;;;;;11.68;10.48;;;;;;;;;;6280768;22;20340;-73
2022/08/15 07:29:47;;;;;;;14.40;12.85;;;;;;;;;;6280248;22;20345;-73
2022/08/15 07:32:41;;;;;;;14.95;12.05;;;;;;;;;;6280234;22;20015;-72
2022/08/15 07:35:14;;;;;;;12.90;11.65;;;;;;;;;;6280305;22;20110;-72
2022/08/15 07:37:49;;;;;;;17.98;16.13;;;;;;;;;;6280160;22;20026;-73
2022/08/15 07:40:25;;;;;;;17.85;16.02;;;;;;;;;;6280547;22;20504;-72
2022/08/15 07:43:00;;;;;;;18.23;13.40;;;;;;;;;;6280831;22;20031;-72
2022/08/15 07:45:31;;;;;;;11.88;9.65;;;;;;;;;;6308210;22;20029;-72
2022/08/15 07:48:24;;;;;;;11.32;10.20;;;;;;;;;;6307754;22;20113;-72
2022/08/15 07:51:09;;;;;;;13.00;11.52;;;;;;;;;;6280834;22;20050;-74
2022/08/15 07:53:53;;;;;;;25.55;22.80;;;;;;;;;;6280969;22;20022;-72
2022/08/15 07:56:29;;;;;;;24.55;22.10;;;;;;;;;;6279764;22;20023;-73
2022/08/15 07:59:25;;;;;;;17.30;15.10;;;;;;;;;;6280073;22;20019;-73
2022/08/15 08:02:25;;;;;;;13.68;11.82;;;;;;;;;;6279425;22;20045;-75
2022/08/15 08:05:08;;;;;;;12.13;8.65;;;;;;;;;;6279605;22;20402;-74
2022/08/15 08:07:42;;;;;;;51.50;44.80;;;;;;;;;;6279429;22;20026;-75
2022/08/15 08:10:40;;;;;;;12.40;11.10;;;;;;;;;;6280345;22;20628;-75
2022/08/15 08:13:29;;;;;;;10.93;8.60;;;;;;;;;;6280304;22;20023;-74
2022/08/15 08:16:07;;;;;;;10.50;9.27;;;;;;;;;;6279728;22;20027;-75
2022/08/15 08:18:45;;;;;;;9.82;8.25;;;;;;;;;;6280268;22;20098;-74
2022/08/15 08:21:18;;;;;;;10.77;9.77;;;;;;;;;;6255195;22;20023;-74
2022/08/15 08:24:08;;;;;;;10.05;8.52;;;;;;;;;;6280151;22;20022;-74
2022/08/15 08:26:56;;;;;;;10.25;9.27;;;;;;;;;;6280236;22;20020;-76
2022/08/15 08:29:26;;;;;;;9.20;8.20;;;;;;;;;;6279835;22;20038;-74
2022/08/15 08:32:15;;;;;;;11.25;9.80;;;;;;;;;;6280291;22;20096;-76
2022/08/15 08:35:16;;;;;;;10.98;8.65;;;;;;;;;;6307678;22;20022;-75
2022/08/15 08:37:52;;;;;;;9.13;8.32;;;;;;;;;;6307771;22;20026;-76
2022/08/15 08:43:16;;;;;;;9.32;8.35;;;;;;;;;;6307654;22;20437;-75
2022/08/15 08:45:50;;;;;;;10.63;9.70;;;;;;;;;;6307675;22;20085;-75
2022/08/15 08:48:41;;;;;;;11.77;10.57;;;;;;;;;;6307549;22;20015;-76
2022/08/15 08:51:16;;;;;;;10.93;9.77;;;;;;;;;;6307664;22;20065;-75
2022/08/15 08:54:05;;;;;;;13.20;11.90;;;;;;;;;;6307536;22;20030;-75
2022/08/15 08:56:40;;;;;;;12.38;11.13;;;;;;;;;;6307228;22;20087;-75
2022/08/15 08:59:11;;;;;;;12.45;10.93;;;;;;;;;;6307503;22;20064;-75
2022/08/15 09:01:40;;;;;;;12.70;11.55;;;;;;;;;;6307727;22;20015;-75
2022/08/15 09:04:12;;;;;;;11.32;10.23;;;;;;;;;;6307360;22;20033;-75
2022/08/15 09:06:46;;;;;;;14.48;13.05;;;;;;;;;;6307449;22;20011;-76
2022/08/15 09:09:35;;;;;;;11.43;10.32;;;;;;;;;;6307325;22;20019;-75
2022/08/15 09:15:07;;;;;;;9.63;8.57;;;;;;;;;;6306938;22;20007;-74
2022/08/15 09:17:47;;;;;;;11.30;9.65;;;;;;;;;;6307405;22;20066;-74
2022/08/15 09:20:36;;;;;;;10.07;9.05;;;;;;;;;;6307376;22;20011;-74
2022/08/15 09:23:06;;;;;;;8.70;7.90;;;;;;;;;;6307330;22;20065;-74
2022/08/15 09:25:47;;;;;;;9.57;8.57;;;;;;;;;;6307289;22;20082;-73
2022/08/15 09:28:16;;;;;;;9.90;8.90;;;;;;;;;;6307148;22;20526;-73
2022/08/15 09:30:58;;;;;;;8.80;7.60;;;;;;;;;;6307558;22;20385;-74
2022/08/15 09:33:37;;;;;;;8.57;7.68;;;;;;;;;;6307569;22;20344;-74
2022/08/15 09:36:22;;;;;;;8.02;7.32;;;;;;;;;;6307307;22;20384;-74
2022/08/15 09:39:13;;;;;;;9.07;8.18;;;;;;;;;;6306920;22;20022;-74
2022/08/15 09:41:42;;;;;;;10.70;8.60;;;;;;;;;;6307131;22;20015;-73
2022/08/15 09:44:37;;;;;;;10.82;8.95;;;;;;;;;;6307266;22;20077;-73
2022/08/15 09:47:08;;;;;;;29.45;26.42;;;;;;;;;;6307271;22;20016;-74
2022/08/15 09:49:40;;;;;;;;;;;;;;;;;;6280396;22;20021;-72
2022/08/15 09:52:18;;;;;;;10.52;9.43;;;;;;;;;;6306948;22;19915;-74
2022/08/15 09:55:25;;;;;;;11.02;9.98;;;;;;;;;;6307008;22;20021;-74
2022/08/15 09:58:10;;;;;;;9.68;8.30;;;;;;;;;;6296886;22;20015;-74
2022/08/15 10:00:41;;;;;;;9.63;8.63;;;;;;;;;;6307142;22;20045;-73
2022/08/15 10:03:22;;;;;;;16.92;14.55;;;;;;;;;;6306532;22;20486;-74
2022/08/15 10:06:09;;;;;;;8.35;7.45;;;;;;;;;;6306648;22;20019;-74
2022/08/15 10:09:01;;;;;;;9.40;7.95;;;;;;;;;;6284199;22;20066;-74
2022/08/15 10:11:54;;;;;;;10.02;9.02;;;;;;;;;;6306720;22;20367;-74
2022/08/15 10:14:46;;;;;;;11.60;9.75;;;;;;;;;;6306731;22;20041;-73
2022/08/15 10:17:21;;;;;;;17.02;14.50;;;;;;;;;;6306849;22;20374;-74
2022/08/15 10:19:56;;;;;;;38.45;34.33;;;;;;;;;;6306350;22;20330;-74
2022/08/15 10:22:48;;;;;;;9.93;8.93;;;;;;;;;;6306285;22;20341;-74
2022/08/15 10:25:16;;;;;;;15.15;13.57;;;;;;;;;;6306449;22;20086;-74
2022/08/15 10:28:05;;;;;;;11.38;10.20;;;;;;;;;;6306445;22;20022;-74
2022/08/15 10:31:01;;;;;;;15.93;14.25;;;;;;;;;;6306750;22;20042;-74
2022/08/15 10:33:34;;;;;;;16.73;15.13;;;;;;;;;;6306618;22;20070;-74
2022/08/15 10:36:13;;;;;;;20.90;18.88;;;;;;;;;;6306399;22;20023;-74
2022/08/15 10:39:18;;;;;;;57.97;51.83;;;;;;;;;;6306936;22;20019;-74
2022/08/15 10:41:52;;;;;;;17.65;15.85;;;;;;;;;;6306284;22;20015;-73
2022/08/15 10:44:23;;;;;;;58.85;52.55;;;;;;;;;;6306373;22;20398;-74
2022/08/15 10:47:05;;;;;;;20.17;17.27;;;;;;;;;;6306502;22;20354;-74
2022/08/15 10:49:41;;;;;;;194.85;168.93;;;;;;;;;;6306642;22;20440;-74
2022/08/15 10:52:22;;;;;;;191.60;171.43;;;;;;;;;;6307954;22;20011;-74
2022/08/15 10:55:13;;;;;;;147.63;131.80;;;;;;;;;;6308562;22;20532;-74
2022/08/15 10:57:46;;;;;;;95.80;85.25;;;;;;;;;;6308522;22;20069;-74
2022/08/15 11:00:16;;;;;;;193.35;166.45;;;;;;;;;;6308811;22;20027;-74
2022/08/15 11:03:06;;;;;;;78.55;69.93;;;;;;;;;;6307630;22;20467;-74
2022/08/15 11:05:41;;;;;;;74.78;63.33;;;;;;;;;;6308603;22;20035;-75
2022/08/15 11:08:13;;;;;;;15.35;13.82;;;;;;;;;;6308081;22;20011;-74
2022/08/15 11:10:44;;;;;;;16.13;14.43;;;;;;;;;;6308711;22;20094;-74
2022/08/15 11:13:14;;;;;;;51.97;46.05;;;;;;;;;;6308449;22;20042;-74
2022/08/15 11:15:49;;;;;;;26.08;23.33;;;;;;;;;;6308355;22;20043;-74
2022/08/15 11:18:38;;;;;;;12.75;11.18;;;;;;;;;;6308302;22;20015;-74
2022/08/15 11:21:30;;;;;;;33.95;27.92;;;;;;;;;;6308134;22;20022;-74
2022/08/15 11:24:05;;;;;;;20.73;18.58;;;;;;;;;;6307900;22;20037;-73
2022/08/15 11:26:34;;;;;;;13.40;11.70;;;;;;;;;;6307602;22;20015;-74
2022/08/15 11:29:15;;;;;;;11.35;9.65;;;;;;;;;;6308382;22;20030;-74
2022/08/15 11:31:44;;;;;;;19.13;15.18;;;;;;;;;;6308102;22;20069;-74
2022/08/15 11:34:21;;;;;;;9.48;8.52;;;;;;;;;;6307822;22;20011;-74
2022/08/15 11:37:09;;;;;;;7.97;7.18;;;;;;;;;;6307340;22;20019;-74
2022/08/15 11:39:47;;;;;;;16.17;14.35;;;;;;;;;;6307876;22;20042;-75
2022/08/15 11:42:17;;;;;;;10.60;9.50;;;;;;;;;;6307497;22;20023;-75
2022/08/15 11:44:56;;;;;;;10.52;8.30;;;;;;;;;;6308158;22;20341;-75
2022/08/15 11:47:26;;;;;;;12.43;11.13;;;;;;;;;;6307781;22;20090;-75
2022/08/15 11:49:59;;;;;;;9.07;8.05;;;;;;;;;;6308236;22;20334;-72
2022/08/15 11:52:29;;;;;;;9.45;7.70;;;;;;;;;;6308251;22;20395;-74
2022/08/15 11:55:22;;;;;;;9.73;8.27;;;;;;;;;;6308122;22;20015;-74
2022/08/15 11:57:58;;;;;;;9.07;8.15;;;;;;;;;;6308040;22;20049;-73
2022/08/15 12:00:46;;;;;;;9.65;7.40;;;;;;;;;;6308131;22;20464;-74
2022/08/15 12:03:19;;;;;;;8.38;7.10;;;;;;;;;;6307128;22;20027;-74
2022/08/15 12:06:13;;;;;;;8.75;7.95;;;;;;;;;;6307402;22;20118;-74
2022/08/15 12:09:06;;;;;;;8.88;7.28;;;;;;;;;;6284013;22;20073;-74
2022/08/15 12:11:38;;;;;;;11.57;9.40;;;;;;;;;;6307506;22;20090;-75
2022/08/15 12:14:18;;;;;;;10.15;9.15;;;;;;;;;;6307595;22;20015;-75
2022/08/15 12:17:01;;;;;;;9.68;8.23;;;;;;;;;;6307618;22;20019;-75
2022/08/15 12:19:30;;;;;;;;;;;;;;;;;;6308042;22;20015;-76
2022/08/15 12:22:00;;;;;;;9.38;8.10;;;;;;;;;;6307400;22;19914;-79
2022/08/15 12:24:48;;;;;;;9.90;7.70;;;;;;;;;;6307723;22;20114;-75
2022/08/15 12:27:16;;;;;;;8.55;7.75;;;;;;;;;;6280263;22;20015;-77
2022/08/15 12:29:44;;;;;;;9.00;8.13;;;;;;;;;;6307509;22;20022;-77
2022/08/15 12:32:17;;;;;;;9.27;8.32;;;;;;;;;;6307195;22;20082;-70
2022/08/15 12:35:05;;;;;;;8.10;7.30;;;;;;;;;;6307729;22;20023;-74
2022/08/15 12:37:51;;;;;;;8.93;7.28;;;;;;;;;;6306930;22;20019;-76
2022/08/15 12:40:20;;;;;;;8.13;6.93;;;;;;;;;;6307083;22;20018;-74
2022/08/15 12:43:08;;;;;;;8.50;7.35;;;;;;;;;;6306996;22;20098;-75
2022/08/15 12:45:36;;;;;;;12.50;8.60;;;;;;;;;;6307005;22;20065;-72
2022/08/15 12:48:14;;;;;;;10.80;9.70;;;;;;;;;;6306840;22;20019;-72
2022/08/15 12:51:02;;;;;;;12.82;10.57;;;;;;;;;;6307404;22;20440;-71
2022/08/15 12:53:30;;;;;;;9.43;8.52;;;;;;;;;;6305826;22;20094;-72
2022/08/15 12:55:58;;;;;;;15.98;14.18;;;;;;;;;;6307006;22;20019;-72
2022/08/15 12:58:26;;;;;;;11.63;10.45;;;;;;;;;;6279043;22;20019;-70
2022/08/15 13:00:57;;;;;;;10.75;9.63;;;;;;;;;;6305410;22;20069;-73
2022/08/15 13:03:31;;;;;;;12.30;11.02;;;;;;;;;;6304354;22;20016;-73
2022/08/15 13:06:25;;;;;;;12.43;11.13;;;;;;;;;;6305327;22;20035;-73
2022/08/15 13:09:02;;;;;;;8.45;7.30;;;;;;;;;;6305636;22;20072;-77
2022/08/15 13:11:31;;;;;;;8.30;7.50;;;;;;;;;;6307160;22;20523;-76
2022/08/15 13:14:00;;;;;;;10.32;8.30;;;;;;;;;;6306788;22;20046;-79
2022/08/15 13:16:30;;;;;;;10.38;8.05;;;;;;;;;;6306265;22;20445;-77
2022/08/15 13:19:20;;;;;;;8.07;7.28;;;;;;;;;;6307325;22;20011;-77
2022/08/15 13:24:57;;;;;;;8.88;7.32;;;;;;;;;;6307629;22;20434;-76
2022/08/15 13:27:28;;;;;;;8.60;7.70;;;;;;;;;;6306256;22;20022;-77
2022/08/15 13:29:56;;;;;;;8.00;7.25;;;;;;;;;;6306653;22;20445;-79
2022/08/15 13:32:25;;;;;;;9.45;7.50;;;;;;;;;;6306462;22;20068;-78
2022/08/15 13:34:52;;;;;;;10.02;8.90;;;;;;;;;;6306858;22;20015;-79
2022/08/15 13:37:23;;;;;;;9.27;8.38;;;;;;;;;;6306479;22;20022;-80
2022/08/15 13:40:16;;;;;;;9.45;8.25;;;;;;;;;;6285008;22;20011;-80
2022/08/15 13:42:47;;;;;;;8.35;7.50;;;;;;;;;;6305625;22;20035;-77
2022/08/15 13:45:17;;;;;;;8.50;7.18;;;;;;;;;;6306457;22;20041;-81
2022/08/15 13:48:07;;;;;;;8.20;7.40;;;;;;;;;;6306663;22;20011;-80
2022/08/15 13:50:43;;;;;;;8.65;7.75;;;;;;;;;;6307186;22;20019;-80
2022/08/15 13:53:12;;;;;;;7.68;6.97;;;;;;;;;;6306712;22;20042;-79
2022/08/15 13:55:40;;;;;;;9.02;7.35;;;;;;;;;;6306502;22;20026;-73
2022/08/15 13:58:10;;;;;;;8.30;7.38;;;;;;;;;;6307274;22;20027;-74
2022/08/15 14:00:47;;;;;;;8.73;7.82;;;;;;;;;;6306882;22;20019;-74
2022/08/15 14:03:31;;;;;;;8.20;7.40;;;;;;;;;;6307631;22;20021;-72
2022/08/15 14:06:00;;;;;;;8.65;7.38;;;;;;;;;;6306453;22;20090;-79
2022/08/15 14:08:30;;;;;;;8.57;7.75;;;;;;;;;;6279239;22;20015;-80
2022/08/15 14:11:18;;;;;;;10.65;7.70;;;;;;;;;;6305699;22;20027;-79
2022/08/15 14:14:00;;;;;;;9.20;7.55;;;;;;;;;;6304950;22;20019;-79
2022/08/15 14:16:30;;;;;;;9.20;7.57;;;;;;;;;;6278694;22;20030;-79
2022/08/15 14:19:18;;;;;;;8.77;7.85;;;;;;;;;;6306563;22;20018;-78
2022/08/15 14:22:08;;;;;;;13.38;11.40;;;;;;;;;;6306529;22;20445;-79
2022/08/15 14:24:43;;;;;;;9.98;8.30;;;;;;;;;;6306552;22;20011;-80
2022/08/15 14:27:26;;;;;;;9.25;8.30;;;;;;;;;;6308697;22;20453;-80
2022/08/15 14:30:09;;;;;;;8.50;7.65;;;;;;;;;;6309378;22;20015;-80
2022/08/15 14:32:37;;;;;;;10.13;7.40;;;;;;;;;;6308729;22;20022;-81
2022/08/15 14:35:25;;;;;;;8.15;7.35;;;;;;;;;;6286052;22;20022;-79
2022/08/15 14:38:09;;;;;;;7.55;6.72;;;;;;;;;;6308302;22;20042;-79
2022/08/15 14:40:40;;;;;;;7.82;6.60;;;;;;;;;;6309038;22;20030;-77
2022/08/15 14:43:14;;;;;;;7.80;7.00;;;;;;;;;;6308299;22;20047;-80
2022/08/15 14:45:45;;;;;;;7.00;6.13;;;;;;;;;;6280681;22;20022;-79
2022/08/15 14:48:33;;;;;;;6.43;5.78;;;;;;;;;;6308131;22;20064;-78
2022/08/15 14:51:31;;;;;;;8.48;6.93;;;;;;;;;;6308107;22;20068;-78
2022/08/15 14:54:20;;;;;;;7.57;6.50;;;;;;;;;;6308213;22;20035;-77
2022/08/15 14:57:08;;;;;;;7.85;6.70;;;;;;;;;;6308103;22;20019;-77
2022/08/15 14:59:36;;;;;;;7.75;6.32;;;;;;;;;;6308304;22;20015;-78
2022/08/15 15:02:27;;;;;;;8.20;7.28;;;;;;;;;;6308233;22;20011;-80
2022/08/15 15:04:57;;;;;;;6.97;6.28;;;;;;;;;;6308222;22;20053;-77
2022/08/15 15:07:29;;;;;;;7.40;6.70;;;;;;;;;;6308091;22;20007;-78
2022/08/15 15:10:18;;;;;;;8.10;7.30;;;;;;;;;;6307962;22;20022;-78
2022/08/15 15:12:54;;;;;;;7.80;6.68;;;;;;;;;;6307936;22;20061;-78
2022/08/15 15:15:24;;;;;;;8.85;7.30;;;;;;;;;;6307316;22;20027;-75
2022/08/15 15:17:52;;;;;;;8.02;6.68;;;;;;;;;;6307347;22;20019;-77
2022/08/15 15:20:20;;;;;;;7.55;6.47;;;;;;;;;;6307202;22;20076;-76
2022/08/15 15:23:08;;;;;;;9.32;7.07;;;;;;;;;;6307366;22;20012;-76
2022/08/15 15:25:41;;;;;;;8.70;6.80;;;;;;;;;;6307579;22;20023;-75
2022/08/15 15:28:10;;;;;;;8.10;6.43;;;;;;;;;;6307831;22;20339;-76
2022/08/15 15:30:59;;;;;;;7.93;7.18;;;;;;;;;;6307400;22;20038;-76
2022/08/15 15:33:28;;;;;;;7.45;6.55;;;;;;;;;;6307426;22;20015;-75
2022/08/15 15:36:00;;;;;;;8.02;6.97;;;;;;;;;;6307669;22;20090;-76
2022/08/15 15:38:30;;;;;;;8.75;7.88;;;;;;;;;;6279918;22;20023;-76
2022/08/15 15:41:05;;;;;;;8.73;7.03;;;;;;;;;;6307736;22;20448;-76
2022/08/15 15:43:33;;;;;;;7.75;7.05;;;;;;;;;;6306766;22;20019;-75
2022/08/15 15:46:07;;;;;;;7.75;6.95;;;;;;;;;;6306429;22;20018;-75
2022/08/15 15:48:41;;;;;;;7.80;6.40;;;;;;;;;;6307358;22;20094;-74
2022/08/15 15:51:12;;;;;;;8.80;7.20;;;;;;;;;;6307149;22;20016;-75
2022/08/15 15:53:42;;;;;;;7.70;6.90;;;;;;;;;;6307533;22;20049;-75
2022/08/15 15:56:11;;;;;;;8.73;6.88;;;;;;;;;;6306817;22;20043;-75
2022/08/15 15:58:59;;;;;;;7.88;7.00;;;;;;;;;;6284011;22;20023;-75